首页
METAR-TAF:

METAR-TAF

机场 :

瓜达尔, 巴基斯坦

纬度: 25-13-59N, 经度: 062-19-46E, 海拔: 29米

当前天气观测

该预报发布于20小时和46分钟前的09:25 UTC
风速8节,风向南转西南
温度 33°C
湿度 56%
气压
能見度: 4000

METAR: OPGD 220925Z 21008KT 4000 NSC 33/23 QNH1004

时间: 11:11 (06:11 UTC)

预报

该预报发布于2小时和41分钟前的03:30 UTC
预报有效从23日的 06点(UTC)到 24日的 06点(UTC)
风速10节,风向西南
能見度: 5000
从 23日的 1600点(UTC)
风速5节,风向东南
能見度: 3000
短暂存在
从 24日的 00点(UTC)到 24日的 04点(UTC)
风速节,风向
能見度: 2000
散云层高于3000英尺

TAF: OPGD 230330Z 2306/2406 23010KT 5000 HZ NSC FM231600 14005KT 3000 FU NSC TEMPO 2400/2404 00000KT 2000 FU SCT030

超过4000个机场的气象观测和天气预报(METAR&TAF报告)。

可查询的气象台以黄色和红色小点在地图上表示。

将鼠标移到小点上方,可查看气象台名称。

然后点击查看天气观测和预报。

如需切换地图:点击带黑十字的绿色按钮放大地图;点击带横线的绿色按钮缩小地图;或者点击绿色箭头查看邻近地区的地图。


METAR-TAF: